RJAI(METAR)
03/23 14:00
METAR RJAI 230500Z 35001KT 9999 FEW030 BKN200 14/M09 Q1014 RMK
1SC030 6CI200 A2996=
戻る
トップページへ戻る
IMOC Co,.Ltd.